Time;durP1;ratioP1;P1;durP2;ratioP2;P2;SDS_P1;SDS_P2;PMS_P1;PMS_P2;Temp;Humidity;BMP_temperature;BMP_pressure;BME280_temperature;BME280_humidity;BME280_pressure;Samples;Min_cycle;Max_cycle;Signal;HPM_P1;HPM_P2
2023/07/19 00:00:42;;;;;;;68.37;3.47;;;20.80;1.00;;;;;;5084111;28;20184;-81
2023/07/19 00:03:08;;;;;;;67.37;3.93;;;20.80;1.00;;;;;;5083423;28;20733;-82
2023/07/19 00:05:33;;;;;;;67.87;4.20;;;20.80;1.00;;;;;;5084454;28;20177;-81
2023/07/19 00:07:59;;;;;;;68.00;4.13;;;20.70;1.00;;;;;;5083607;28;20457;-81
2023/07/19 00:10:25;;;;;;;70.23;3.97;;;20.70;1.00;;;;;;5101941;28;20164;-82
2023/07/19 00:12:50;;;;;;;68.17;4.07;;;20.70;1.00;;;;;;5102885;28;20515;-82
2023/07/19 00:15:17;;;;;;;70.70;4.37;;;20.60;1.00;;;;;;5104137;28;20825;-82
2023/07/19 00:17:44;;;;;;;68.43;4.10;;;20.60;1.00;;;;;;5101187;28;20636;-81
2023/07/19 00:20:11;;;;;;;68.50;4.20;;;20.60;1.00;;;;;;5082958;28;20502;-82
2023/07/19 00:22:37;;;;;;;70.20;4.50;;;20.50;1.00;;;;;;5086066;28;20410;-82
2023/07/19 00:25:03;;;;;;;69.77;4.87;;;20.60;1.00;;;;;;5101460;28;20452;-82
2023/07/19 00:27:29;;;;;;;69.17;4.67;;;20.50;1.00;;;;;;5084297;28;20937;-82
2023/07/19 00:29:54;;;;;;;70.63;4.60;;;20.50;1.00;;;;;;5083683;28;20433;-82
2023/07/19 00:32:20;;;;;;;67.53;4.90;;;20.50;1.00;;;;;;5101983;28;20555;-81
2023/07/19 00:34:46;;;;;;;66.90;4.37;;;20.40;1.00;;;;;;5101978;28;20656;-82
2023/07/19 00:37:12;;;;;;;68.60;4.90;;;20.40;1.00;;;;;;5101731;28;20226;-81
2023/07/19 00:39:38;;;;;;;69.77;5.00;;;20.40;1.00;;;;;;5101230;28;20460;-82
2023/07/19 00:42:06;;;;;;;71.27;5.07;;;20.30;1.00;;;;;;5083634;28;20172;-82
2023/07/19 00:44:32;;;;;;;68.30;4.67;;;20.30;1.00;;;;;;5101875;28;20442;-81
2023/07/19 00:47:00;;;;;;;70.57;6.10;;;20.30;1.00;;;;;;5101940;28;20409;-82
2023/07/19 00:49:28;;;;;;;70.83;5.50;;;20.30;1.00;;;;;;5086810;28;20213;-82
2023/07/19 00:51:54;;;;;;;67.77;5.47;;;20.30;1.00;;;;;;5101522;28;20406;-82
2023/07/19 00:54:21;;;;;;;67.83;5.23;;;20.30;1.00;;;;;;5101392;28;20409;-82
2023/07/19 00:56:48;;;;;;;68.10;5.60;;;20.30;1.00;;;;;;5102153;28;20400;-82
2023/07/19 00:59:15;;;;;;;68.20;5.03;;;20.20;1.00;;;;;;5101579;28;20421;-82
2023/07/19 01:01:43;;;;;;;71.20;5.83;;;20.20;1.00;;;;;;5083163;28;20494;-81
2023/07/19 01:04:08;;;;;;;70.27;4.97;;;20.20;1.00;;;;;;5102871;28;20459;-82
2023/07/19 01:06:34;;;;;;;68.03;5.03;;;20.10;1.00;;;;;;5086814;28;20404;-82
2023/07/19 01:09:00;;;;;;;69.23;5.60;;;20.10;1.00;;;;;;5105643;28;20179;-81
2023/07/19 01:11:26;;;;;;;69.20;4.57;;;20.10;1.00;;;;;;5105288;28;20173;-82
2023/07/19 01:13:55;;;;;;;71.20;5.30;;;20.20;1.00;;;;;;5105495;28;20405;-81
2023/07/19 01:16:22;;;;;;;68.40;5.27;;;20.10;1.00;;;;;;5087606;28;20174;-82
2023/07/19 01:18:48;;;;;;;70.80;4.70;;;20.10;1.00;;;;;;5105905;28;20436;-82
2023/07/19 01:21:14;;;;;;;70.63;4.77;;;20.10;1.00;;;;;;5105554;28;20401;-82
2023/07/19 01:23:40;;;;;;;75.33;4.17;;;20.10;1.00;;;;;;5108229;28;20445;-82
2023/07/19 01:26:06;;;;;;;69.60;4.60;;;20.00;1.00;;;;;;5104955;28;20187;-82
2023/07/19 01:28:32;;;;;;;69.03;4.40;;;20.00;1.00;;;;;;5087449;28;20187;-82
2023/07/19 01:31:01;;;;;;;70.27;5.10;;;19.90;1.00;;;;;;5105299;28;20406;-82
2023/07/19 01:33:27;;;;;;;67.23;4.70;;;19.90;1.00;;;;;;5105292;28;20918;-82
2023/07/19 01:35:52;;;;;;;69.27;4.37;;;19.90;1.00;;;;;;5105127;28;20501;-82
2023/07/19 01:38:18;;;;;;;67.07;4.10;;;19.90;1.00;;;;;;5087164;28;20229;-81
2023/07/19 01:40:44;;;;;;;70.27;5.00;;;19.80;1.00;;;;;;5105334;28;20175;-82
2023/07/19 01:43:09;;;;;;;69.80;4.97;;;19.80;1.00;;;;;;5105138;28;20567;-82
2023/07/19 01:45:35;;;;;;;71.67;4.50;;;19.70;1.00;;;;;;5104223;28;20164;-82
2023/07/19 01:48:00;;;;;;;77.30;6.50;;;19.70;1.00;;;;;;5104314;28;20175;-82
2023/07/19 01:50:26;;;;;;;67.37;4.23;;;19.70;1.00;;;;;;5086382;28;20303;-82
2023/07/19 01:52:52;;;;;;;67.30;4.93;;;19.70;1.00;;;;;;5104355;28;20168;-82
2023/07/19 01:55:18;;;;;;;70.40;5.00;;;19.60;1.00;;;;;;5103944;28;20672;-82
2023/07/19 01:57:43;;;;;;;71.00;5.10;;;19.60;1.00;;;;;;5107659;28;20193;-82
2023/07/19 02:00:09;;;;;;;69.67;5.17;;;19.60;1.00;;;;;;5107391;28;20634;-82
2023/07/19 02:02:35;;;;;;;66.37;4.70;;;19.50;1.00;;;;;;5106878;28;20269;-82
2023/07/19 02:05:00;;;;;;;69.60;4.97;;;19.50;1.00;;;;;;5107310;28;20450;-82
2023/07/19 02:07:26;;;;;;;68.73;4.70;;;19.50;1.00;;;;;;5107262;28;20166;-82
2023/07/19 02:09:52;;;;;;;69.37;4.53;;;19.50;1.00;;;;;;5088317;28;20193;-82
2023/07/19 02:12:17;;;;;;;69.37;4.93;;;19.50;1.00;;;;;;5107009;28;20218;-81
2023/07/19 02:14:43;;;;;;;68.43;4.67;;;19.40;1.00;;;;;;5106568;28;20171;-82
2023/07/19 02:17:10;;;;;;;68.57;4.83;;;19.40;1.00;;;;;;5106406;28;20192;-82
2023/07/19 02:19:35;;;;;;;67.33;4.63;;;19.40;1.00;;;;;;5088004;28;20282;-81
2023/07/19 02:22:01;;;;;;;69.77;5.13;;;19.30;1.00;;;;;;5103666;28;20437;-82
2023/07/19 02:24:27;;;;;;;70.87;5.43;;;19.30;1.00;;;;;;5085526;28;20196;-82
2023/07/19 02:26:52;;;;;;;71.77;4.90;;;19.30;1.00;;;;;;5103447;28;20176;-82
2023/07/19 02:29:18;;;;;;;69.80;4.63;;;19.30;1.00;;;;;;5085390;28;20272;-82
2023/07/19 02:31:44;;;;;;;69.40;4.20;;;19.30;1.00;;;;;;5103288;28;20167;-81
2023/07/19 02:34:14;;;;;;;67.10;5.00;;;19.30;1.00;;;;;;5106569;28;20398;-82
2023/07/19 02:36:39;;;;;;;68.00;4.47;;;19.20;1.00;;;;;;5105453;28;20182;-82
2023/07/19 02:39:05;;;;;;;68.30;4.90;;;19.20;1.00;;;;;;5105631;28;20428;-82
2023/07/19 02:41:31;;;;;;;68.00;4.67;;;19.20;1.00;;;;;;5105862;28;20202;-82
2023/07/19 02:43:57;;;;;;;68.47;4.97;;;19.20;1.00;;;;;;5106141;28;20188;-82
2023/07/19 02:46:23;;;;;;;68.53;4.80;;;19.20;1.00;;;;;;5087600;28;20784;-82
2023/07/19 02:48:48;;;;;;;68.77;5.30;;;19.10;1.00;;;;;;5105325;28;20189;-82
2023/07/19 02:51:14;;;;;;;70.43;5.70;;;19.00;1.00;;;;;;5103104;28;20159;-81
2023/07/19 02:53:40;;;;;;;68.60;5.13;;;19.00;1.00;;;;;;5084226;28;20512;-82
2023/07/19 02:56:05;;;;;;;70.80;5.63;;;19.10;1.00;;;;;;5084369;28;20170;-82
2023/07/19 02:58:31;;;;;;;69.67;6.30;;;19.10;1.00;;;;;;5103105;28;20938;-82
2023/07/19 03:00:57;;;;;;;67.73;5.10;;;19.00;1.00;;;;;;5102160;28;20163;-81
2023/07/19 03:03:22;;;;;;;69.07;5.40;;;19.00;1.00;;;;;;5102404;28;20195;-82
2023/07/19 03:05:48;;;;;;;70.77;5.77;;;19.00;1.00;;;;;;5102577;28;20160;-82
2023/07/19 03:08:14;;;;;;;68.57;5.33;;;18.90;1.00;;;;;;5102706;28;20203;-81
2023/07/19 03:10:41;;;;;;;69.00;4.97;;;19.00;1.00;;;;;;5103380;28;20444;-82
2023/07/19 03:13:07;;;;;;;69.47;5.13;;;19.00;1.00;;;;;;5102398;28;20394;-82
2023/07/19 03:15:34;;;;;;;68.20;4.73;;;18.90;1.00;;;;;;5087596;28;20440;-82
2023/07/19 03:18:03;;;;;;;69.57;5.60;;;18.90;1.00;;;;;;5103033;28;20428;-81
2023/07/19 03:20:30;;;;;;;68.57;5.20;;;18.90;1.00;;;;;;5103352;28;20451;-82
2023/07/19 03:22:56;;;;;;;68.80;5.40;;;18.90;1.00;;;;;;5087197;28;20409;-82
2023/07/19 03:25:25;;;;;;;68.33;5.50;;;18.90;1.00;;;;;;5102494;28;20896;-82
2023/07/19 03:27:51;;;;;;;69.00;5.70;;;18.90;1.00;;;;;;5083760;28;20408;-81
2023/07/19 03:30:17;;;;;;;70.90;5.60;;;18.90;1.00;;;;;;5103476;28;20402;-82
2023/07/19 03:32:43;;;;;;;69.60;5.50;;;19.00;1.00;;;;;;5102631;28;20159;-82
2023/07/19 03:35:09;;;;;;;69.00;5.57;;;19.00;1.00;;;;;;5102751;28;20972;-82
2023/07/19 03:37:36;;;;;;;68.57;4.60;;;19.00;1.00;;;;;;5084310;28;20173;-82
2023/07/19 03:40:02;;;;;;;72.00;5.87;;;19.00;1.00;;;;;;5102830;28;20423;-82
2023/07/19 03:42:28;;;;;;;68.20;5.63;;;19.00;1.00;;;;;;5105396;28;20394;-82
2023/07/19 03:44:54;;;;;;;68.20;4.90;;;19.00;1.00;;;;;;5084433;28;20885;-82
2023/07/19 03:47:19;;;;;;;71.47;5.50;;;18.90;1.00;;;;;;5101674;28;20641;-84
2023/07/19 03:49:45;;;;;;;69.13;5.47;;;18.90;1.00;;;;;;5083293;28;20193;-81
2023/07/19 03:52:11;;;;;;;70.67;5.33;;;18.90;1.00;;;;;;5102564;28;20357;-82
2023/07/19 03:54:36;;;;;;;71.10;5.40;;;18.90;1.00;;;;;;5101596;28;20164;-82
2023/07/19 03:57:02;;;;;;;72.37;5.20;;;18.90;1.00;;;;;;5102461;28;20169;-83
2023/07/19 03:59:29;;;;;;;70.93;5.13;;;18.80;1.00;;;;;;5083212;28;20240;-84
2023/07/19 04:01:55;;;;;;;69.57;5.30;;;18.80;1.00;;;;;;5101647;28;20191;-83
2023/07/19 04:04:21;;;;;;;68.17;5.43;;;18.80;1.00;;;;;;5087008;28;20993;-83
2023/07/19 04:06:47;;;;;;;70.00;5.50;;;18.80;1.00;;;;;;5101663;28;20159;-83
2023/07/19 04:09:12;;;;;;;68.40;5.37;;;18.80;1.00;;;;;;5101728;28;20184;-83
2023/07/19 04:11:38;;;;;;;68.67;5.40;;;18.80;1.00;;;;;;5083308;28;20531;-83
2023/07/19 04:14:04;;;;;;;69.13;5.37;;;18.90;1.00;;;;;;5101179;28;20164;-83
2023/07/19 04:16:29;;;;;;;74.33;5.10;;;19.00;1.00;;;;;;5083219;28;20171;-83
2023/07/19 04:18:55;;;;;;;67.90;5.00;;;19.00;1.00;;;;;;5101548;28;20247;-83
2023/07/19 04:21:21;;;;;;;72.90;6.80;;;19.00;1.00;;;;;;5100705;28;20183;-83
2023/07/19 04:23:46;;;;;;;68.70;5.30;;;19.00;1.00;;;;;;5082621;28;20207;-83
2023/07/19 04:26:12;;;;;;;70.30;5.97;;;19.10;1.00;;;;;;5101627;28;20164;-83
2023/07/19 04:28:38;;;;;;;67.97;5.30;;;19.10;1.00;;;;;;5100970;28;20184;-83
2023/07/19 04:31:03;;;;;;;70.00;5.40;;;19.10;1.00;;;;;;5101567;28;20194;-83
2023/07/19 04:33:30;;;;;;;68.97;6.60;;;19.00;1.00;;;;;;5103280;28;20231;-83
2023/07/19 04:35:56;;;;;;;67.90;6.23;;;19.00;1.00;;;;;;5087252;28;20179;-83
2023/07/19 04:38:22;;;;;;;75.27;5.70;;;18.90;1.00;;;;;;5083080;28;20429;-83
2023/07/19 04:40:47;;;;;;;71.50;5.17;;;18.90;1.00;;;;;;5105765;28;20185;-83
2023/07/19 04:43:13;;;;;;;72.87;6.87;;;18.80;1.00;;;;;;5105888;28;20216;-83
2023/07/19 04:45:43;;;;;;;68.63;5.27;;;18.80;1.00;;;;;;5087149;28;20188;-83
2023/07/19 04:48:08;;;;;;;70.83;5.50;;;18.80;1.00;;;;;;5086235;28;20189;-83
2023/07/19 04:50:34;;;;;;;71.57;5.73;;;18.80;1.00;;;;;;5104027;28;20441;-83
2023/07/19 04:53:00;;;;;;;74.43;5.77;;;18.90;1.00;;;;;;5103798;28;20172;-83
2023/07/19 04:55:25;;;;;;;68.50;5.50;;;19.00;1.00;;;;;;5085788;28;20169;-83
2023/07/19 04:57:51;;;;;;;70.00;5.70;;;19.10;1.00;;;;;;5103536;28;20219;-83
2023/07/19 05:00:17;;;;;;;69.73;5.07;;;19.40;1.00;;;;;;5085021;28;20167;-83
2023/07/19 05:02:43;;;;;;;69.03;5.40;;;19.60;1.00;;;;;;5106172;28;20176;-83
2023/07/19 05:05:09;;;;;;;68.67;4.83;;;19.90;1.00;;;;;;5084795;28;20461;-83
2023/07/19 05:07:35;;;;;;;67.77;4.20;;;19.80;1.00;;;;;;5085312;28;20170;-83
2023/07/19 05:10:02;;;;;;;69.47;4.47;;;19.80;1.00;;;;;;5084962;28;20439;-83
2023/07/19 05:12:29;;;;;;;68.27;4.50;;;19.80;1.00;;;;;;5103476;28;20458;-84
2023/07/19 05:14:55;;;;;;;69.07;5.20;;;19.80;1.00;;;;;;5088463;28;20502;-83
2023/07/19 05:17:21;;;;;;;68.40;4.87;;;19.80;1.00;;;;;;5106914;28;20428;-83
2023/07/19 05:19:47;;;;;;;71.73;5.13;;;19.70;1.00;;;;;;5085805;28;20436;-83
2023/07/19 05:22:12;;;;;;;70.63;5.23;;;19.70;1.00;;;;;;5086107;28;20327;-84
2023/07/19 05:24:39;;;;;;;66.30;3.73;;;19.70;1.00;;;;;;5104111;28;20191;-83
2023/07/19 05:27:05;;;;;;;69.10;4.90;;;19.80;1.00;;;;;;5085979;28;20173;-83
2023/07/19 05:29:31;;;;;;;71.67;5.17;;;19.80;1.00;;;;;;5103730;28;20423;-83
2023/07/19 05:31:57;;;;;;;67.77;4.60;;;19.80;1.00;;;;;;5105619;28;20415;-82
2023/07/19 05:34:23;;;;;;;70.43;4.70;;;19.70;1.00;;;;;;5090772;28;20472;-82
2023/07/19 05:36:48;;;;;;;68.40;4.87;;;19.80;1.00;;;;;;5088256;28;20171;-82
2023/07/19 05:39:14;;;;;;;73.33;5.00;;;19.70;1.00;;;;;;5106681;28;20187;-82
2023/07/19 05:41:40;;;;;;;67.30;4.30;;;19.70;1.00;;;;;;5106420;28;20163;-82
2023/07/19 05:44:05;;;;;;;68.63;4.63;;;19.80;1.00;;;;;;5088525;28;20561;-82
2023/07/19 05:46:35;;;;;;;67.57;4.73;;;19.90;1.00;;;;;;5088903;28;20168;-82
2023/07/19 05:49:00;;;;;;;67.30;3.83;;;19.90;1.00;;;;;;5106536;28;20175;-82
2023/07/19 05:51:26;;;;;;;69.23;4.90;;;19.80;1.00;;;;;;5088481;28;20492;-82
2023/07/19 05:53:51;;;;;;;68.07;4.70;;;19.90;1.00;;;;;;5108345;28;20164;-82
2023/07/19 05:56:17;;;;;;;69.40;5.10;;;20.00;1.00;;;;;;5089723;28;20197;-82
2023/07/19 05:58:43;;;;;;;69.63;4.43;;;20.00;1.00;;;;;;5106853;28;20220;-82
2023/07/19 06:01:09;;;;;;;67.80;4.43;;;20.10;1.00;;;;;;5106265;28;20167;-82
2023/07/19 06:03:36;;;;;;;70.13;5.53;;;20.10;1.00;;;;;;5106879;28;20193;-84
2023/07/19 06:06:05;;;;;;;69.83;4.40;;;20.10;1.00;;;;;;5098481;28;20401;-85
2023/07/19 06:08:34;;;;;;;70.47;4.83;;;20.10;1.00;;;;;;5098683;28;20416;-84
2023/07/19 06:11:02;;;;;;;70.10;5.10;;;20.10;1.00;;;;;;5098792;28;20550;-83
2023/07/19 06:13:28;;;;;;;69.23;4.80;;;20.10;1.00;;;;;;5097983;28;20738;-84
2023/07/19 06:15:54;;;;;;;72.20;5.37;;;20.10;1.00;;;;;;5080559;28;20403;-85
2023/07/19 06:18:26;;;;;;;69.17;4.47;;;20.10;1.00;;;;;;5098578;28;20209;-85
2023/07/19 06:20:54;;;;;;;69.97;4.90;;;20.10;1.00;;;;;;5103821;28;20199;-84
2023/07/19 06:23:20;;;;;;;68.27;4.50;;;20.10;1.00;;;;;;5084285;28;20575;-86
2023/07/19 06:25:49;;;;;;;72.00;5.50;;;20.20;1.00;;;;;;5103461;28;20908;-84
2023/07/19 06:28:21;;;;;;;71.90;4.80;;;20.20;1.00;;;;;;5089005;28;20431;-84
2023/07/19 06:30:46;;;;;;;72.03;5.27;;;20.20;1.00;;;;;;5088877;28;20401;-84
2023/07/19 06:33:12;;;;;;;71.77;5.43;;;20.10;1.00;;;;;;5105331;28;20413;-84
2023/07/19 06:35:38;;;;;;;70.60;5.10;;;20.20;1.00;;;;;;5088770;28;20196;-84
2023/07/19 06:38:04;;;;;;;68.53;4.30;;;20.30;1.00;;;;;;5087674;28;20194;-84
2023/07/19 06:40:29;;;;;;;75.77;5.30;;;20.30;1.00;;;;;;5106679;28;20155;-84
2023/07/19 06:42:55;;;;;;;69.07;4.30;;;20.20;1.00;;;;;;5087962;28;20163;-84
2023/07/19 06:45:21;;;;;;;70.17;5.03;;;20.20;1.00;;;;;;5086744;28;20199;-83
2023/07/19 06:47:47;;;;;;;68.37;4.90;;;20.20;1.00;;;;;;5102392;28;20398;-83
2023/07/19 06:50:12;;;;;;;67.67;4.73;;;20.20;1.00;;;;;;5081343;28;20171;-84
2023/07/19 06:52:38;;;;;;;72.37;4.60;;;20.30;1.00;;;;;;5099496;28;20167;-84
2023/07/19 06:55:05;;;;;;;69.03;4.60;;;20.30;1.00;;;;;;5100968;28;20411;-84
2023/07/19 06:57:31;;;;;;;71.40;4.03;;;20.40;1.00;;;;;;5103989;28;20206;-83
2023/07/19 06:59:58;;;;;;;69.17;4.20;;;20.50;1.00;;;;;;5102526;28;20426;-83
2023/07/19 07:02:24;;;;;;;67.70;4.40;;;20.50;1.00;;;;;;5099281;28;20421;-84
2023/07/19 07:04:50;;;;;;;69.07;4.50;;;20.70;1.00;;;;;;5103703;28;20442;-83
2023/07/19 07:07:18;;;;;;;69.67;4.50;;;20.90;1.00;;;;;;5084553;28;20413;-84
2023/07/19 07:09:44;;;;;;;69.50;4.83;;;21.00;1.00;;;;;;5099579;28;20434;-83
2023/07/19 07:12:13;;;;;;;76.30;5.93;;;21.00;1.00;;;;;;5102739;28;20431;-83
2023/07/19 07:14:39;;;;;;;72.27;4.90;;;21.10;1.00;;;;;;5101781;28;20432;-83
2023/07/19 07:17:06;;;;;;;70.27;4.47;;;21.20;1.00;;;;;;5103314;28;20438;-83
2023/07/19 07:19:32;;;;;;;70.80;5.07;;;21.10;1.00;;;;;;5083355;28;20434;-83
2023/07/19 07:21:58;;;;;;;75.10;5.23;;;21.20;1.00;;;;;;5102695;28;20405;-83
2023/07/19 07:24:24;;;;;;;69.27;3.83;;;21.30;1.00;;;;;;5101178;28;20548;-83
2023/07/19 07:26:50;;;;;;;75.90;5.93;;;21.30;1.00;;;;;;5102323;28;20382;-83
2023/07/19 07:29:16;;;;;;;72.30;5.00;;;21.30;1.00;;;;;;5104393;28;20179;-82
2023/07/19 07:31:42;;;;;;;70.43;4.23;;;21.40;1.00;;;;;;5104489;28;20650;-81
2023/07/19 07:34:08;;;;;;;69.60;4.83;;;21.40;1.00;;;;;;5103772;28;20390;-82
2023/07/19 07:36:34;;;;;;;70.50;4.50;;;21.50;1.00;;;;;;5104024;28;20777;-83
2023/07/19 07:39:00;;;;;;;70.03;4.37;;;21.60;1.00;;;;;;5103909;28;20421;-83
2023/07/19 07:41:25;;;;;;;70.70;4.70;;;21.70;1.00;;;;;;5084863;28;20176;-84
2023/07/19 07:43:51;;;;;;;69.30;4.73;;;21.70;1.00;;;;;;5103107;28;20254;-84
2023/07/19 07:46:17;;;;;;;68.77;4.20;;;21.70;1.00;;;;;;5081552;28;20163;-84
2023/07/19 07:48:42;;;;;;;71.20;4.60;;;21.80;1.00;;;;;;5099982;28;20191;-83
2023/07/19 07:51:08;;;;;;;73.57;5.37;;;22.00;1.00;;;;;;5082300;28;20168;-84
2023/07/19 07:53:34;;;;;;;75.77;4.83;;;22.20;1.00;;;;;;5079991;28;20171;-84
2023/07/19 07:56:00;;;;;;;71.03;4.50;;;22.30;1.00;;;;;;5081693;28;20175;-83
2023/07/19 07:58:25;;;;;;;70.17;4.60;;;22.20;1.00;;;;;;5079792;28;20195;-83
2023/07/19 08:00:53;;;;;;;70.80;4.67;;;22.40;1.00;;;;;;5097630;28;20167;-83
2023/07/19 08:03:19;;;;;;;71.53;4.70;;;22.60;1.00;;;;;;5095862;28;20225;-82
2023/07/19 08:05:45;;;;;;;70.10;3.90;;;22.60;1.00;;;;;;5097929;28;20409;-83
2023/07/19 08:08:11;;;;;;;69.67;4.30;;;22.70;1.00;;;;;;5100223;28;20187;-83
2023/07/19 08:10:40;;;;;;;72.40;4.57;;;22.70;1.00;;;;;;5079062;28;20401;-83
2023/07/19 08:13:08;;;;;;;71.50;4.80;;;22.80;1.00;;;;;;5100710;28;20167;-83
2023/07/19 08:15:34;;;;;;;70.20;4.70;;;22.70;1.00;;;;;;5108456;28;20412;-82
2023/07/19 08:18:00;;;;;;;70.80;4.33;;;22.70;1.00;;;;;;5108058;28;20471;-82
2023/07/19 08:20:26;;;;;;;76.97;4.43;;;22.80;1.00;;;;;;5089249;28;20436;-83
2023/07/19 08:22:52;;;;;;;68.97;3.73;;;22.90;1.00;;;;;;5101917;28;20388;-83
2023/07/19 08:25:21;;;;;;;69.77;4.37;;;22.90;1.00;;;;;;5101799;28;20234;-83
2023/07/19 08:27:47;;;;;;;70.27;3.90;;;22.90;1.00;;;;;;5102670;28;20611;-83
2023/07/19 08:30:15;;;;;;;74.00;3.70;;;22.80;1.00;;;;;;5084021;28;20437;-84
2023/07/19 08:32:47;;;;;;;71.53;4.30;;;22.70;1.00;;;;;;5100647;28;20412;-83
2023/07/19 08:35:14;;;;;;;70.30;3.53;;;22.80;1.00;;;;;;5084499;28;20409;-83
2023/07/19 08:37:44;;;;;;;71.63;4.30;;;22.90;1.00;;;;;;5100734;28;20455;-84
2023/07/19 08:40:17;;;;;;;73.40;3.60;;;23.00;1.00;;;;;;5083326;28;20741;-84
2023/07/19 08:42:53;;;;;;;72.40;3.97;;;23.00;1.00;;;;;;5101324;28;20438;-84
2023/07/19 08:45:23;;;;;;;67.97;4.00;;;23.00;1.00;;;;;;5105408;28;20432;-82
2023/07/19 08:47:50;;;;;;;70.80;4.30;;;23.00;1.00;;;;;;5092595;28;20405;-83
2023/07/19 08:50:17;;;;;;;73.03;4.07;;;23.10;1.00;;;;;;5093273;28;20405;-83
2023/07/19 08:52:46;;;;;;;70.47;3.80;;;23.10;1.00;;;;;;5108815;28;20427;-82
2023/07/19 08:55:12;;;;;;;70.80;3.80;;;23.10;1.00;;;;;;5108800;28;20402;-83
2023/07/19 08:57:41;;;;;;;70.27;3.77;;;23.10;1.00;;;;;;5110922;28;20420;-83
2023/07/19 09:00:08;;;;;;;69.37;4.60;;;23.00;1.00;;;;;;5092647;28;20176;-83
2023/07/19 09:02:33;;;;;;;70.57;3.87;;;23.00;1.00;;;;;;5090383;28;20527;-83
2023/07/19 09:05:13;;;;;;;71.10;4.57;;;23.00;1.00;;;;;;5090796;28;20468;-83
2023/07/19 09:07:40;;;;;;;70.07;3.67;;;23.00;1.00;;;;;;5108607;28;20155;-82
2023/07/19 09:10:07;;;;;;;68.87;3.80;;;23.20;1.00;;;;;;5089239;28;20409;-82
2023/07/19 09:12:41;;;;;;;68.57;3.80;;;23.10;1.00;;;;;;5108372;28;20408;-82
2023/07/19 09:15:09;;;;;;;76.00;4.27;;;22.80;1.00;;;;;;5090386;28;20398;-83
2023/07/19 09:17:46;;;;;;;73.60;4.20;;;22.70;1.00;;;;;;5109750;28;20397;-83
2023/07/19 09:20:13;;;;;;;78.23;4.47;;;22.40;1.00;;;;;;5109337;28;20378;-83
2023/07/19 09:22:39;;;;;;;76.30;4.50;;;22.40;1.00;;;;;;5109876;28;20923;-83
2023/07/19 09:25:07;;;;;;;70.80;3.80;;;22.40;1.00;;;;;;5109359;28;20460;-84
2023/07/19 09:27:33;;;;;;;67.93;4.20;;;22.40;1.00;;;;;;5110289;28;20779;-83
2023/07/19 09:29:59;;;;;;;69.73;4.03;;;22.40;1.00;;;;;;5091951;28;20413;-82
2023/07/19 09:32:25;;;;;;;70.47;4.27;;;22.60;1.00;;;;;;5109004;28;20423;-83
2023/07/19 09:34:55;;;;;;;68.67;5.03;;;22.60;1.00;;;;;;5108879;28;20437;-84
2023/07/19 09:37:24;;;;;;;71.20;4.03;;;22.70;1.00;;;;;;5090173;28;20409;-83
2023/07/19 09:39:51;;;;;;;71.70;4.30;;;23.00;1.00;;;;;;5092167;28;20472;-84
2023/07/19 09:42:19;;;;;;;74.37;3.93;;;23.20;1.00;;;;;;5105417;28;20401;-85
2023/07/19 09:44:49;;;;;;;68.30;3.60;;;23.40;1.00;;;;;;5088603;28;20502;-83
2023/07/19 09:47:15;;;;;;;72.57;4.20;;;23.70;1.00;;;;;;5091050;28;20550;-84
2023/07/19 09:49:42;;;;;;;70.90;4.40;;;23.80;1.00;;;;;;5108490;28;20962;-83
2023/07/19 09:52:08;;;;;;;70.13;4.93;;;23.90;1.00;;;;;;5108951;28;20466;-83
2023/07/19 09:54:34;;;;;;;72.97;4.40;;;23.80;1.00;;;;;;5090299;28;20417;-82
2023/07/19 09:57:04;;;;;;;71.87;4.87;;;23.90;1.00;;;;;;5091076;28;20409;-83
2023/07/19 09:59:38;;;;;;;69.10;4.03;;;24.00;1.00;;;;;;5090409;28;20191;-82
2023/07/19 10:02:04;;;;;;;75.73;4.97;;;24.20;1.00;;;;;;5108004;28;20510;-82
2023/07/19 10:04:37;;;;;;;70.97;4.13;;;24.20;1.00;;;;;;5089560;28;20461;-82
2023/07/19 10:07:25;;;;;;;69.37;3.80;;;24.30;1.00;;;;;;5089643;28;20469;-82
2023/07/19 10:10:01;;;;;;;68.67;4.30;;;24.50;1.00;;;;;;5107756;28;20428;-82
2023/07/19 10:12:28;;;;;;;77.43;4.30;;;24.60;1.00;;;;;;5105989;28;20413;-82
2023/07/19 10:15:02;;;;;;;68.50;4.03;;;24.50;1.00;;;;;;5106286;28;20466;-82
2023/07/19 10:17:31;;;;;;;71.13;3.53;;;24.40;1.00;;;;;;5087669;28;20417;-82
2023/07/19 10:20:03;;;;;;;69.90;4.10;;;24.50;1.00;;;;;;5089373;28;20435;-82
2023/07/19 10:22:58;;;;;;;71.30;4.90;;;24.30;1.00;;;;;;5089025;28;20427;-82
2023/07/19 10:25:37;;;;;;;71.40;3.90;;;24.40;1.00;;;;;;5106160;28;20454;-82
2023/07/19 10:28:04;;;;;;;68.60;3.50;;;24.60;1.00;;;;;;5107901;28;20423;-81
2023/07/19 10:30:45;;;;;;;69.50;4.30;;;24.70;1.00;;;;;;5106668;28;20398;-82
2023/07/19 10:33:31;;;;;;;68.20;3.63;;;24.60;1.00;;;;;;5106463;28;20469;-82
2023/07/19 10:36:17;;;;;;;72.00;4.40;;;24.40;1.00;;;;;;5106085;28;20387;-82
2023/07/19 10:38:43;;;;;;;71.37;5.20;;;24.20;1.00;;;;;;5106482;28;20431;-82
2023/07/19 10:41:11;;;;;;;75.13;4.40;;;24.10;1.00;;;;;;5088759;28;20514;-82
2023/07/19 10:43:38;;;;;;;69.77;3.80;;;24.00;1.00;;;;;;5106240;28;20184;-83
2023/07/19 10:46:08;;;;;;;71.83;4.23;;;24.20;1.00;;;;;;5086643;28;20399;-82
2023/07/19 10:48:38;;;;;;;71.27;4.20;;;24.60;1.00;;;;;;5105633;28;20441;-82
2023/07/19 10:51:05;;;;;;;69.90;4.50;;;24.80;1.00;;;;;;5087126;28;20408;-83
2023/07/19 10:53:46;;;;;;;69.23;3.80;;;24.70;1.00;;;;;;5084712;28;20407;-83
2023/07/19 10:56:13;;;;;;;74.00;4.77;;;24.80;1.00;;;;;;5079431;28;20435;-83
2023/07/19 10:58:39;;;;;;;70.67;3.67;;;24.80;1.00;;;;;;5086580;28;20459;-82
2023/07/19 11:01:06;;;;;;;69.70;4.40;;;24.90;1.00;;;;;;5106695;28;20399;-83
2023/07/19 11:03:32;;;;;;;70.60;4.00;;;24.80;1.00;;;;;;5105322;28;20467;-82
2023/07/19 11:05:58;;;;;;;72.30;3.60;;;24.90;1.00;;;;;;5087299;28;20950;-82
2023/07/19 11:08:30;;;;;;;68.93;3.17;;;24.90;1.00;;;;;;5105052;28;20423;-82
2023/07/19 11:10:57;;;;;;;69.80;3.70;;;25.00;1.00;;;;;;5088144;28;20459;-82
2023/07/19 11:13:24;;;;;;;69.50;3.53;;;25.00;1.00;;;;;;5086593;28;20401;-83
2023/07/19 11:15:55;;;;;;;73.97;3.77;;;25.10;1.00;;;;;;5086692;28;20404;-82
2023/07/19 11:18:24;;;;;;;68.40;3.50;;;25.20;1.00;;;;;;5105324;28;20435;-82
2023/07/19 11:20:50;;;;;;;70.80;4.20;;;25.10;1.00;;;;;;5105996;28;20401;-83
2023/07/19 11:23:16;;;;;;;73.20;3.60;;;25.20;1.00;;;;;;5106199;28;20898;-83
2023/07/19 11:25:42;;;;;;;70.80;4.00;;;25.40;1.00;;;;;;5105358;28;20407;-83
2023/07/19 11:28:08;;;;;;;71.57;3.60;;;25.60;1.00;;;;;;5084613;28;20182;-82
2023/07/19 11:30:38;;;;;;;71.60;3.93;;;26.00;1.00;;;;;;5104583;28;20155;-83
2023/07/19 11:33:06;;;;;;;76.20;3.83;;;26.20;1.00;;;;;;5104654;28;20163;-83
2023/07/19 11:35:32;;;;;;;71.47;3.67;;;26.60;1.00;;;;;;5104891;28;20413;-83
2023/07/19 11:37:58;;;;;;;70.90;3.30;;;26.80;1.00;;;;;;5084485;28;20440;-82
2023/07/19 11:40:24;;;;;;;72.27;3.57;;;27.10;1.00;;;;;;5104108;28;20381;-83
2023/07/19 11:42:56;;;;;;;70.77;3.90;;;27.30;1.00;;;;;;5081023;28;20596;-84
2023/07/19 11:45:26;;;;;;;70.83;3.50;;;27.60;1.00;;;;;;5080198;28;20513;-84
2023/07/19 11:48:00;;;;;;;70.20;3.53;;;27.70;1.00;;;;;;5100208;28;20389;-84
2023/07/19 11:50:26;;;;;;;70.67;3.97;;;28.00;1.00;;;;;;5097463;28;20384;-84
2023/07/19 11:53:00;;;;;;;69.27;3.80;;;27.90;1.00;;;;;;5078419;28;20417;-84
2023/07/19 11:55:32;;;;;;;68.07;3.50;;;27.70;1.00;;;;;;5080070;28;20915;-84
2023/07/19 11:58:06;;;;;;;68.87;3.50;;;27.70;1.00;;;;;;5081218;28;20478;-84
2023/07/19 12:00:36;;;;;;;71.00;4.33;;;27.70;1.00;;;;;;5098141;28;20377;-84
2023/07/19 12:03:02;;;;;;;71.53;4.30;;;28.00;1.00;;;;;;5078677;28;20845;-84
2023/07/19 12:05:28;;;;;;;72.53;3.50;;;28.10;1.00;;;;;;5079777;28;20460;-84
2023/07/19 12:07:57;;;;;;;68.83;3.50;;;27.80;1.00;;;;;;5081468;28;20191;-84
2023/07/19 12:10:27;;;;;;;69.20;3.63;;;27.50;1.00;;;;;;5082093;28;20435;-84
2023/07/19 12:12:54;;;;;;;68.50;3.23;;;27.10;1.00;;;;;;5079021;28;20406;-84
2023/07/19 12:15:22;;;;;;;70.37;3.67;;;26.80;1.00;;;;;;5082591;28;20466;-84
2023/07/19 12:23:03;;;;;;;71.47;3.73;;;26.40;1.00;;;;;;5054745;28;20486;-84
2023/07/19 12:25:56;;;;;;;68.67;2.97;;;26.10;1.00;;;;;;5057960;28;20438;-83
2023/07/19 12:28:41;;;;;;;69.87;3.40;;;25.90;1.00;;;;;;5032422;28;20425;-84
2023/07/19 12:31:08;;;;;;;72.00;3.47;;;26.10;1.00;;;;;;5036462;28;20391;-84
2023/07/19 12:33:43;;;;;;;68.70;3.37;;;26.10;1.00;;;;;;5019329;28;20473;-84
2023/07/19 12:36:13;;;;;;;70.70;3.27;;;26.10;1.00;;;;;;5018775;28;20854;-84
2023/07/19 12:38:39;;;;;;;68.77;3.30;;;26.00;1.00;;;;;;5019767;28;20486;-84
2023/07/19 12:41:05;;;;;;;72.60;2.93;;;26.00;1.00;;;;;;5017648;28;20416;-84
2023/07/19 12:43:43;;;;;;;68.63;2.97;;;26.00;1.00;;;;;;5019143;28;20197;-84
2023/07/19 12:46:19;;;;;;;68.70;3.07;;;26.00;1.00;;;;;;5019681;28;20208;-85
2023/07/19 12:48:54;;;;;;;67.30;3.30;;;25.80;1.00;;;;;;5036491;28;20419;-84
2023/07/19 12:51:19;;;;;;;69.27;3.00;;;25.90;1.00;;;;;;5037197;28;20383;-83
2023/07/19 12:53:45;;;;;;;69.30;3.20;;;26.20;1.00;;;;;;5037353;28;20772;-84